Time;durP1;ratioP1;P1;durP2;ratioP2;P2;SDS_P1;SDS_P2;PMS_P1;PMS_P2;Temp;Humidity;BMP_temperature;BMP_pressure;BME280_temperature;BME280_humidity;BME280_pressure;Samples;Min_cycle;Max_cycle;Signal;HPM_P1;HPM_P2
2022/11/03 00:00:09;;;;;;;11.35;2.10;;;11.20;99.90;;;;;;5143045;27;20042;-48
2022/11/03 00:02:35;;;;;;;14.40;2.28;;;11.20;99.90;;;;;;5142660;27;20038;-52
2022/11/03 00:06:03;;;;;;;9.07;2.15;;;11.20;99.90;;;;;;5141596;27;20031;-49
2022/11/03 00:07:46;;;;;;;14.50;2.20;;;11.20;99.90;;;;;;5131153;27;20039;-50
2022/11/03 00:10:12;;;;;;;12.27;2.55;;;11.20;99.90;;;;;;5147508;27;20046;-49
2022/11/03 00:12:38;;;;;;;11.13;2.28;;;11.20;99.90;;;;;;5146908;27;20039;-49
2022/11/03 00:15:04;;;;;;;8.50;2.00;;;11.20;99.90;;;;;;5142193;27;20441;-48
2022/11/03 00:17:29;;;;;;;13.25;2.80;;;11.10;99.90;;;;;;5133235;27;20034;-50
2022/11/03 00:19:55;;;;;;;13.98;2.60;;;11.10;99.90;;;;;;5141515;27;20101;-49
2022/11/03 00:22:21;;;;;;;10.48;2.28;;;11.10;99.90;;;;;;5141561;27;20394;-48
2022/11/03 00:24:46;;;;;;;13.52;2.30;;;11.10;99.90;;;;;;5146478;27;20039;-50
2022/11/03 00:27:12;;;;;;;13.07;2.10;;;11.10;99.90;;;;;;5145930;27;20039;-49
2022/11/03 00:29:37;;;;;;;10.98;2.25;;;11.10;99.90;;;;;;5143591;27;20039;-46
2022/11/03 00:32:03;;;;;;;12.40;2.42;;;11.00;99.90;;;;;;5140422;27;20084;-49
2022/11/03 00:34:29;;;;;;;12.80;2.25;;;11.00;99.90;;;;;;5150947;27;20121;-45
2022/11/03 00:36:55;;;;;;;14.60;2.53;;;11.00;99.90;;;;;;5139759;27;20031;-48
2022/11/03 00:39:20;;;;;;;16.88;2.70;;;11.00;99.90;;;;;;5144542;27;20103;-49
2022/11/03 00:41:46;;;;;;;9.18;1.98;;;10.90;99.90;;;;;;5138103;27;20440;-48
2022/11/03 00:44:12;;;;;;;9.77;2.40;;;10.90;99.90;;;;;;5136715;27;20043;-47
2022/11/03 00:46:38;;;;;;;10.65;2.25;;;11.00;99.90;;;;;;5139825;27;20047;-48
2022/11/03 00:49:04;;;;;;;9.10;2.38;;;10.90;99.90;;;;;;5130413;27;20039;-49
2022/11/03 00:51:32;;;;;;;15.35;3.00;;;10.90;99.90;;;;;;5148288;27;20470;-51
2022/11/03 00:54:03;;;;;;;12.38;2.20;;;10.90;99.90;;;;;;5140480;27;20118;-51
2022/11/03 00:56:31;;;;;;;9.80;2.40;;;10.80;99.90;;;;;;5145091;27;20208;-49
2022/11/03 00:58:58;;;;;;;10.00;2.63;;;10.90;99.90;;;;;;5140597;27;20045;-46
2022/11/03 01:01:30;;;;;;;12.48;2.40;;;10.80;99.90;;;;;;5120650;27;20045;-51
2022/11/03 01:06:50;;;;;;;12.57;2.35;;;10.80;99.90;;;;;;5118002;27;20054;-47
2022/11/03 01:09:30;;;;;;;19.42;2.80;;;10.80;99.90;;;;;;5142835;27;20035;-50
2022/11/03 01:12:02;;;;;;;11.70;2.70;;;10.70;99.90;;;;;;5143647;27;20031;-47
2022/11/03 01:14:49;;;;;;;15.68;2.83;;;10.70;99.90;;;;;;5139104;27;20030;-51
2022/11/03 01:17:18;;;;;;;12.88;2.05;;;10.70;99.90;;;;;;5119500;27;20501;-49
2022/11/03 01:19:44;;;;;;;10.75;2.53;;;10.70;99.90;;;;;;5133241;27;20037;-49
2022/11/03 01:22:10;;;;;;;11.88;2.50;;;10.70;99.90;;;;;;5145553;27;20034;-46
2022/11/03 01:24:36;;;;;;;14.10;2.92;;;10.70;99.90;;;;;;5135829;27;20118;-48
2022/11/03 01:27:02;;;;;;;10.10;2.17;;;10.70;99.90;;;;;;5140350;27;20118;-50
2022/11/03 01:29:27;;;;;;;14.23;2.63;;;10.70;99.90;;;;;;5146629;27;20045;-49
2022/11/03 01:31:53;;;;;;;15.95;2.95;;;10.70;99.90;;;;;;5144772;27;20043;-48
2022/11/03 01:34:20;;;;;;;11.23;2.28;;;10.60;99.90;;;;;;5139208;27;20044;-50
2022/11/03 01:36:46;;;;;;;12.57;2.85;;;10.70;99.90;;;;;;5145828;27;20034;-49
2022/11/03 01:39:17;;;;;;;11.43;2.35;;;10.60;99.90;;;;;;5147086;27;20034;-49
2022/11/03 01:41:45;;;;;;;14.48;2.80;;;10.50;99.90;;;;;;5144573;27;20122;-49
2022/11/03 01:44:10;;;;;;;13.93;2.45;;;10.50;99.90;;;;;;5138809;27;20096;-51
2022/11/03 01:46:45;;;;;;;12.15;2.58;;;10.50;99.90;;;;;;5144719;27;20046;-50
2022/11/03 01:49:23;;;;;;;13.18;2.53;;;10.50;99.90;;;;;;5139635;27;20381;-52
2022/11/03 01:51:56;;;;;;;11.23;2.38;;;10.50;99.90;;;;;;5144282;27;20038;-46
2022/11/03 01:54:25;;;;;;;13.50;2.65;;;10.50;99.90;;;;;;5145395;27;20121;-51
2022/11/03 01:56:51;;;;;;;12.52;2.80;;;10.50;99.90;;;;;;5135323;27;20035;-51
2022/11/03 01:59:19;;;;;;;14.82;3.35;;;10.40;99.90;;;;;;5139023;27;20300;-46
2022/11/03 02:01:47;;;;;;;16.23;3.10;;;10.40;99.90;;;;;;5135015;27;20066;-46
2022/11/03 02:04:25;;;;;;;13.38;2.55;;;10.40;99.90;;;;;;5142712;27;20061;-46
2022/11/03 02:07:00;;;;;;;13.77;2.58;;;10.40;99.90;;;;;;5145007;27;20532;-51
2022/11/03 02:09:27;;;;;;;8.88;2.35;;;10.40;99.90;;;;;;5146007;27;20049;-50
2022/11/03 02:12:05;;;;;;;12.77;2.65;;;10.30;99.90;;;;;;5138865;27;20039;-51
2022/11/03 02:14:30;;;;;;;17.38;2.88;;;10.40;99.90;;;;;;5140677;27;20035;-47
2022/11/03 02:17:02;;;;;;;11.43;2.35;;;10.40;99.90;;;;;;5141796;27;20061;-49
2022/11/03 02:20:01;;;;;;;14.52;2.90;;;10.40;99.90;;;;;;5137068;27;20058;-46
2022/11/03 02:22:50;;;;;;;13.23;2.50;;;10.30;99.90;;;;;;5138308;27;20034;-49
2022/11/03 02:25:47;;;;;;;12.07;2.50;;;10.40;99.90;;;;;;5142924;27;20039;-49
2022/11/03 02:28:15;;;;;;;12.45;3.03;;;10.40;99.90;;;;;;5134641;27;20045;-49
2022/11/03 02:30:51;;;;;;;11.35;2.50;;;10.40;99.90;;;;;;5141033;27;20074;-47
2022/11/03 02:33:50;;;;;;;14.25;2.75;;;10.40;99.90;;;;;;5136083;27;20074;-51
2022/11/03 02:36:16;;;;;;;12.63;2.60;;;10.40;99.90;;;;;;5138078;27;20426;-46
2022/11/03 02:38:53;;;;;;;12.75;2.35;;;10.40;99.90;;;;;;5138226;27;20038;-48
2022/11/03 02:41:20;;;;;;;12.20;2.80;;;10.40;99.90;;;;;;5134648;27;20062;-51
2022/11/03 02:43:47;;;;;;;17.92;2.78;;;10.40;99.90;;;;;;5143114;27;20080;-47
2022/11/03 02:46:15;;;;;;;13.10;2.53;;;10.40;99.90;;;;;;5137522;27;20035;-48
2022/11/03 02:48:40;;;;;;;14.65;2.95;;;10.40;99.90;;;;;;5140775;27;20057;-48
2022/11/03 02:51:06;;;;;;;15.45;2.53;;;10.40;99.90;;;;;;5130114;27;20027;-47
2022/11/03 02:53:38;;;;;;;16.65;2.88;;;10.40;99.90;;;;;;5143114;27;20038;-51
2022/11/03 02:56:10;;;;;;;11.50;3.05;;;10.40;99.90;;;;;;5134568;27;20523;-51
2022/11/03 02:58:43;;;;;;;15.07;2.60;;;10.40;99.90;;;;;;5137825;27;20047;-50
2022/11/03 03:01:13;;;;;;;8.27;2.33;;;10.30;99.90;;;;;;5142814;27;20064;-46
2022/11/03 03:03:51;;;;;;;11.30;2.75;;;10.30;99.90;;;;;;5137461;27;20038;-47
2022/11/03 03:06:34;;;;;;;13.55;2.58;;;10.30;99.90;;;;;;5138371;27;20041;-49
2022/11/03 03:09:04;;;;;;;15.32;3.20;;;10.30;99.90;;;;;;5128699;27;20077;-48
2022/11/03 03:11:35;;;;;;;15.15;2.97;;;10.30;99.90;;;;;;5130397;27;20465;-48
2022/11/03 03:14:06;;;;;;;12.52;2.78;;;10.30;99.90;;;;;;5120502;27;20389;-48
2022/11/03 03:16:37;;;;;;;13.98;2.80;;;10.20;99.90;;;;;;5124565;27;20050;-49
2022/11/03 03:19:16;;;;;;;15.77;2.70;;;10.20;99.90;;;;;;5129601;27;20450;-47
2022/11/03 03:21:46;;;;;;;11.77;2.15;;;10.30;99.90;;;;;;5141272;27;20060;-46
2022/11/03 03:24:22;;;;;;;10.25;2.15;;;10.30;99.90;;;;;;5149681;27;20085;-48
2022/11/03 03:26:49;;;;;;;10.75;2.47;;;10.30;99.90;;;;;;5139214;27;20131;-48
2022/11/03 03:29:21;;;;;;;10.60;2.00;;;10.30;99.90;;;;;;5138829;27;20389;-51
2022/11/03 03:31:53;;;;;;;14.27;2.70;;;10.30;99.90;;;;;;5136293;27;20050;-48
2022/11/03 03:34:21;;;;;;;11.77;2.58;;;10.30;99.90;;;;;;5138004;27;20039;-49
2022/11/03 03:36:48;;;;;;;15.60;3.22;;;10.30;99.90;;;;;;5140525;27;20039;-48
2022/11/03 03:39:17;;;;;;;11.25;3.10;;;10.30;99.90;;;;;;5141192;27;20078;-50
2022/11/03 03:41:45;;;;;;;17.35;3.40;;;10.30;99.90;;;;;;5139636;27;20042;-50
2022/11/03 03:44:11;;;;;;;18.13;3.50;;;10.30;99.90;;;;;;5140994;27;20096;-50
2022/11/03 03:46:43;;;;;;;15.23;2.80;;;10.30;99.90;;;;;;5142598;27;20042;-52
2022/11/03 03:49:09;;;;;;;14.07;2.63;;;10.30;99.90;;;;;;5140361;27;20062;-48
2022/11/03 03:51:35;;;;;;;12.02;3.30;;;10.30;99.90;;;;;;5147079;27;20031;-46
2022/11/03 03:54:01;;;;;;;13.35;2.80;;;10.30;99.90;;;;;;5142880;27;20088;-48
2022/11/03 03:56:40;;;;;;;11.52;3.20;;;10.40;99.90;;;;;;5144545;27;20472;-47
2022/11/03 03:59:06;;;;;;;14.27;2.42;;;10.40;99.90;;;;;;5146154;27;20042;-48
2022/11/03 04:01:31;;;;;;;13.05;2.90;;;10.40;99.90;;;;;;5146121;27;20039;-48
2022/11/03 04:03:57;;;;;;;11.90;2.42;;;10.40;99.90;;;;;;5126189;27;20098;-47
2022/11/03 04:06:23;;;;;;;15.77;2.70;;;10.40;99.90;;;;;;5125601;27;20035;-48
2022/11/03 04:08:48;;;;;;;12.32;2.55;;;10.50;99.90;;;;;;5143580;27;20035;-48
2022/11/03 04:22:17;;;;;;;11.57;2.50;;;10.50;99.90;;;;;;5146707;27;20050;-51
2022/11/03 04:24:45;;;;;;;11.73;2.35;;;10.50;99.90;;;;;;5140495;27;20050;-48
2022/11/03 04:27:33;;;;;;;11.70;3.00;;;10.50;99.90;;;;;;5148533;27;20038;-49
2022/11/03 04:30:16;;;;;;;10.82;2.17;;;10.50;99.90;;;;;;5121930;27;20046;-47
2022/11/03 04:32:44;;;;;;;16.80;2.53;;;10.50;99.90;;;;;;5152173;27;20054;-49
2022/11/03 04:35:14;;;;;;;11.05;2.58;;;10.60;99.90;;;;;;5147646;27;20067;-47
2022/11/03 04:37:40;;;;;;;13.82;2.67;;;10.60;99.90;;;;;;5128119;27;20054;-48
2022/11/03 04:40:14;;;;;;;11.43;2.47;;;10.70;99.90;;;;;;5134202;27;20043;-48
2022/11/03 04:42:40;;;;;;;13.95;2.88;;;10.70;99.90;;;;;;5149910;27;20045;-48
2022/11/03 04:45:13;;;;;;;16.80;2.65;;;10.70;99.90;;;;;;5150569;27;20482;-47
2022/11/03 04:47:39;;;;;;;13.85;2.75;;;10.80;99.90;;;;;;5139101;27;20466;-48
2022/11/03 04:50:18;;;;;;;18.77;2.53;;;10.70;99.90;;;;;;5124879;27;20050;-48
2022/11/03 04:52:44;;;;;;;11.05;2.70;;;10.80;99.90;;;;;;5140064;27;20039;-46
2022/11/03 04:55:14;;;;;;;11.90;2.22;;;10.80;99.90;;;;;;5137615;27;20039;-51
2022/11/03 04:57:40;;;;;;;9.32;2.28;;;10.80;99.90;;;;;;5152036;27;20038;-48
2022/11/03 05:00:06;;;;;;;11.98;2.22;;;10.70;99.90;;;;;;5148457;27;20041;-50
2022/11/03 05:02:32;;;;;;;14.70;2.30;;;10.80;99.90;;;;;;5135336;27;20062;-49
2022/11/03 05:04:58;;;;;;;15.73;3.00;;;10.80;99.90;;;;;;5135597;27;20070;-46
2022/11/03 05:07:32;;;;;;;10.60;2.35;;;10.80;99.90;;;;;;5135273;27;20084;-50
2022/11/03 05:09:58;;;;;;;13.25;2.60;;;10.80;99.90;;;;;;5136672;27;20039;-50
2022/11/03 05:12:24;;;;;;;11.93;2.45;;;10.80;99.90;;;;;;5146524;27;20045;-49
2022/11/03 05:14:50;;;;;;;11.63;1.98;;;10.80;99.90;;;;;;5139560;27;20488;-48
2022/11/03 05:17:22;;;;;;;11.25;2.70;;;10.90;99.90;;;;;;5129678;27;20032;-49
2022/11/03 05:19:49;;;;;;;9.60;2.20;;;10.80;99.90;;;;;;5126244;27;20103;-49
2022/11/03 05:22:20;;;;;;;11.23;2.90;;;10.90;99.90;;;;;;5123098;27;20503;-48
2022/11/03 05:24:46;;;;;;;11.40;2.50;;;10.80;99.90;;;;;;5140030;27;20027;-49
2022/11/03 05:27:18;;;;;;;11.00;2.40;;;10.90;99.90;;;;;;5144328;27;20087;-50
2022/11/03 05:29:44;;;;;;;8.25;2.20;;;10.90;99.90;;;;;;5141453;27;20435;-50
2022/11/03 05:32:13;;;;;;;13.32;2.95;;;10.90;99.90;;;;;;5136390;27;20047;-49
2022/11/03 05:34:45;;;;;;;9.93;2.25;;;10.90;99.90;;;;;;5149574;27;20034;-47
2022/11/03 05:37:19;;;;;;;12.18;2.28;;;10.90;99.90;;;;;;5149896;27;20099;-49
2022/11/03 05:39:47;;;;;;;12.45;2.85;;;10.80;99.90;;;;;;5137361;27;20434;-51
2022/11/03 05:42:22;;;;;;;10.13;2.45;;;10.90;99.90;;;;;;5149030;27;20034;-49
2022/11/03 05:44:49;;;;;;;11.40;2.33;;;10.90;99.90;;;;;;5140628;27;20034;-51
2022/11/03 05:47:23;;;;;;;9.63;2.10;;;10.90;99.90;;;;;;5133635;27;20039;-49
2022/11/03 05:49:51;;;;;;;11.00;2.17;;;10.80;99.90;;;;;;5125243;27;20121;-52
2022/11/03 05:52:21;;;;;;;14.50;2.90;;;10.90;99.90;;;;;;5142756;27;20054;-50
2022/11/03 05:54:47;;;;;;;10.73;2.58;;;10.80;99.90;;;;;;5141650;27;20092;-46
2022/11/03 05:57:14;;;;;;;11.35;2.58;;;10.90;99.90;;;;;;5139967;27;20101;-50
2022/11/03 05:59:44;;;;;;;9.27;2.15;;;10.80;99.90;;;;;;5139374;27;20142;-49
2022/11/03 06:02:32;;;;;;;8.18;2.08;;;10.80;99.90;;;;;;5141998;27;20106;-48
2022/11/03 06:04:58;;;;;;;14.27;2.55;;;10.80;99.90;;;;;;5139158;27;20047;-48
2022/11/03 06:07:30;;;;;;;11.23;2.47;;;10.80;99.90;;;;;;5145212;27;20034;-50
2022/11/03 06:09:57;;;;;;;13.70;2.90;;;10.90;99.90;;;;;;5144103;27;20083;-50
2022/11/03 06:12:24;;;;;;;13.20;2.42;;;10.90;99.90;;;;;;5149648;27;20422;-51
2022/11/03 06:14:51;;;;;;;10.40;2.38;;;10.80;99.90;;;;;;5136128;27;20034;-49
2022/11/03 06:17:26;;;;;;;17.50;2.53;;;10.80;99.90;;;;;;5144929;27;20065;-49
2022/11/03 06:19:54;;;;;;;8.60;2.10;;;10.80;99.90;;;;;;5135098;27;20043;-46
2022/11/03 06:22:25;;;;;;;13.48;2.45;;;10.70;99.90;;;;;;5143664;27;20091;-49
2022/11/03 06:24:56;;;;;;;10.63;2.47;;;10.80;99.90;;;;;;5139377;27;20497;-48
2022/11/03 06:27:23;;;;;;;10.95;2.25;;;10.70;99.90;;;;;;5139087;27;20551;-47
2022/11/03 06:29:55;;;;;;;11.50;2.53;;;10.70;99.90;;;;;;5139100;27;20086;-48
2022/11/03 06:32:21;;;;;;;12.32;2.35;;;10.80;99.90;;;;;;5137053;27;20448;-47
2022/11/03 06:34:51;;;;;;;12.88;2.22;;;10.70;99.90;;;;;;5142904;27;20062;-46
2022/11/03 06:37:31;;;;;;;10.63;2.22;;;10.80;99.90;;;;;;5144511;27;20027;-49
2022/11/03 06:40:23;;;;;;;11.32;2.10;;;10.70;99.90;;;;;;5138961;27;20043;-48
2022/11/03 06:42:50;;;;;;;10.23;2.47;;;10.80;99.90;;;;;;5137219;27;20056;-48
2022/11/03 06:45:22;;;;;;;8.48;1.88;;;10.70;99.90;;;;;;5145764;27;20074;-49
2022/11/03 06:47:49;;;;;;;17.60;2.65;;;10.80;99.90;;;;;;5150613;27;20038;-47
2022/11/03 06:50:33;;;;;;;6.95;2.00;;;10.80;99.90;;;;;;5140648;27;20478;-49
2022/11/03 06:53:02;;;;;;;9.85;2.47;;;10.80;99.90;;;;;;5141251;27;20035;-47
2022/11/03 06:55:30;;;;;;;7.43;2.13;;;10.90;99.90;;;;;;5144141;27;20109;-50
2022/11/03 06:58:13;;;;;;;11.65;2.78;;;10.80;99.90;;;;;;5133782;27;20039;-48
2022/11/03 07:00:41;;;;;;;12.30;2.33;;;10.90;99.90;;;;;;5128260;27;20039;-51
2022/11/03 07:03:23;;;;;;;14.82;2.50;;;10.90;99.90;;;;;;5146488;27;20042;-50
2022/11/03 07:05:49;;;;;;;11.57;2.22;;;11.00;99.90;;;;;;5151948;27;20481;-49
2022/11/03 07:08:42;;;;;;;11.60;2.40;;;10.90;99.90;;;;;;5132329;27;20047;-50
2022/11/03 07:11:15;;;;;;;10.55;2.42;;;11.10;99.90;;;;;;5133044;27;20562;-47
2022/11/03 07:13:41;;;;;;;11.38;2.50;;;11.00;99.90;;;;;;5128933;27;20501;-49
2022/11/03 07:16:41;;;;;;;8.98;2.47;;;11.00;99.90;;;;;;5111760;27;20293;-48
2022/11/03 07:19:21;;;;;;;10.63;2.35;;;11.10;99.90;;;;;;5112310;27;20046;-50
2022/11/03 07:21:58;;;;;;;11.93;2.72;;;11.20;99.90;;;;;;5133108;27;20288;-47
2022/11/03 07:24:28;;;;;;;10.63;2.30;;;11.20;99.90;;;;;;5141169;27;20038;-50
2022/11/03 07:27:01;;;;;;;9.88;2.10;;;11.20;99.90;;;;;;5129517;27;20050;-47
2022/11/03 07:29:29;;;;;;;12.50;2.40;;;11.20;99.90;;;;;;5127749;27;20385;-49
2022/11/03 07:31:58;;;;;;;11.07;2.65;;;11.20;99.90;;;;;;5135124;27;20062;-49
2022/11/03 07:34:31;;;;;;;11.02;2.05;;;11.30;99.90;;;;;;5143079;27;20383;-48
2022/11/03 07:36:57;;;;;;;10.57;2.73;;;11.30;99.90;;;;;;5136761;27;20118;-50
2022/11/03 07:39:25;;;;;;;11.23;2.38;;;11.40;99.90;;;;;;5142042;27;20421;-47
2022/11/03 07:41:51;;;;;;;9.35;2.67;;;11.40;99.90;;;;;;5149133;27;20389;-49
2022/11/03 07:44:21;;;;;;;11.55;2.33;;;11.40;99.90;;;;;;5147854;27;20049;-50
2022/11/03 07:46:49;;;;;;;10.95;2.20;;;11.60;99.90;;;;;;5150506;27;20126;-48
2022/11/03 07:49:28;;;;;;;18.25;2.60;;;11.60;99.90;;;;;;5151234;27;20035;-47
2022/11/03 07:51:57;;;;;;;10.57;2.22;;;11.60;99.90;;;;;;5148274;27;20062;-48
2022/11/03 07:54:27;;;;;;;12.00;2.20;;;11.60;99.90;;;;;;5125855;27;20038;-48
2022/11/03 07:57:00;;;;;;;11.57;2.38;;;11.60;99.90;;;;;;5130912;27;20035;-49
2022/11/03 07:59:37;;;;;;;10.23;2.22;;;11.70;99.90;;;;;;5130330;27;20042;-48
2022/11/03 08:02:30;;;;;;;13.48;2.58;;;11.80;99.90;;;;;;5132037;27;20030;-51
2022/11/03 08:04:56;;;;;;;15.15;2.40;;;11.80;99.90;;;;;;5128047;27;20114;-49
2022/11/03 08:07:21;;;;;;;9.60;2.10;;;11.90;99.90;;;;;;5130019;27;20164;-46
2022/11/03 08:09:47;;;;;;;8.32;2.20;;;11.80;99.90;;;;;;5128054;27;20433;-50
2022/11/03 08:12:12;;;;;;;11.15;2.10;;;11.90;99.90;;;;;;5127914;27;20506;-48
2022/11/03 08:14:38;;;;;;;11.68;2.30;;;11.90;99.90;;;;;;5106897;27;20024;-48
2022/11/03 08:17:04;;;;;;;16.65;2.83;;;12.10;99.90;;;;;;5127073;27;20347;-47
2022/11/03 08:19:30;;;;;;;15.57;2.72;;;12.00;99.90;;;;;;5128165;27;20100;-52
2022/11/03 08:21:55;;;;;;;13.10;3.05;;;12.10;99.90;;;;;;5124964;27;20482;-46
2022/11/03 08:24:21;;;;;;;14.05;2.75;;;12.10;99.90;;;;;;5125286;27;20093;-47
2022/11/03 08:26:47;;;;;;;10.95;2.28;;;11.30;99.90;;;;;;5108675;27;20035;-47
2022/11/03 08:29:13;;;;;;;8.82;2.20;;;12.20;99.90;;;;;;5126363;27;20525;-49
2022/11/03 08:31:39;;;;;;;8.43;2.40;;;12.10;99.90;;;;;;5108508;27;20019;-48
2022/11/03 08:34:05;;;;;;;10.38;2.63;;;12.20;99.90;;;;;;5103519;27;20146;-48
2022/11/03 08:36:30;;;;;;;11.23;2.80;;;12.20;99.90;;;;;;5099444;27;20177;-49
2022/11/03 08:38:56;;;;;;;12.63;2.30;;;12.20;99.90;;;;;;5096970;27;20047;-47
2022/11/03 08:41:22;;;;;;;10.52;2.53;;;12.20;99.90;;;;;;5118068;27;20058;-50
2022/11/03 08:43:47;;;;;;;10.23;2.72;;;12.20;99.90;;;;;;5119696;27;20071;-50
2022/11/03 08:46:13;;;;;;;8.73;2.88;;;12.20;99.90;;;;;;5123176;27;20033;-48
2022/11/03 08:48:39;;;;;;;9.30;2.30;;;12.30;99.90;;;;;;5124430;27;20509;-48
2022/11/03 08:51:06;;;;;;;11.52;2.30;;;12.30;99.90;;;;;;5106006;27;20427;-49
2022/11/03 08:53:33;;;;;;;13.90;2.78;;;12.30;99.90;;;;;;5125201;27;20048;-51
2022/11/03 08:55:58;;;;;;;9.98;3.10;;;12.30;99.90;;;;;;5123218;27;20081;-48
2022/11/03 08:58:24;;;;;;;11.23;2.33;;;12.30;99.90;;;;;;5122970;27;20027;-48
2022/11/03 09:00:50;;;;;;;9.20;2.53;;;12.40;99.90;;;;;;5122780;27;20019;-48
2022/11/03 09:03:16;;;;;;;12.38;3.33;;;12.40;99.90;;;;;;5123272;27;20954;-49
2022/11/03 09:05:41;;;;;;;10.93;2.70;;;12.50;99.90;;;;;;5122814;27;20186;-47
2022/11/03 09:08:07;;;;;;;15.43;2.83;;;12.60;99.90;;;;;;5123444;27;20505;-50
2022/11/03 09:10:33;;;;;;;12.02;2.67;;;12.70;99.90;;;;;;5123168;27;20126;-50
2022/11/03 09:12:59;;;;;;;8.63;2.40;;;12.70;99.90;;;;;;5122951;27;20043;-47
2022/11/03 09:15:25;;;;;;;11.25;3.28;;;12.70;99.90;;;;;;5122789;27;20023;-47
2022/11/03 09:17:50;;;;;;;8.00;2.13;;;12.70;99.90;;;;;;5121942;27;20091;-51
2022/11/03 09:20:16;;;;;;;10.13;2.65;;;12.70;99.90;;;;;;5123997;27;20125;-48
2022/11/03 09:22:42;;;;;;;14.77;3.47;;;12.70;99.90;;;;;;5122831;27;20031;-51
2022/11/03 09:25:08;;;;;;;9.52;3.40;;;12.80;99.90;;;;;;5124412;27;20565;-51
2022/11/03 09:27:34;;;;;;;8.73;2.58;;;12.80;99.90;;;;;;5104940;27;20525;-50
2022/11/03 09:30:00;;;;;;;13.20;3.35;;;12.80;99.90;;;;;;5121011;27;20088;-48
2022/11/03 09:32:25;;;;;;;8.75;2.47;;;12.90;99.90;;;;;;5123018;27;20107;-47
2022/11/03 09:34:51;;;;;;;14.25;3.30;;;12.90;99.90;;;;;;5121966;27;20047;-50
2022/11/03 09:37:17;;;;;;;10.88;2.72;;;13.10;99.90;;;;;;5124612;27;20125;-48
2022/11/03 09:39:43;;;;;;;11.48;2.70;;;12.90;99.90;;;;;;5121662;27;20039;-50
2022/11/03 09:42:13;;;;;;;13.05;3.28;;;12.90;99.90;;;;;;5116407;27;20118;-49
2022/11/03 09:44:39;;;;;;;10.57;2.75;;;12.90;99.90;;;;;;5119162;27;20043;-47
2022/11/03 09:47:05;;;;;;;7.88;2.30;;;12.90;99.90;;;;;;5121606;27;20045;-50
2022/11/03 09:49:32;;;;;;;14.50;3.33;;;13.00;99.90;;;;;;5120736;27;20048;-47
2022/11/03 09:52:02;;;;;;;12.70;3.38;;;13.00;99.90;;;;;;5102432;27;20035;-49
2022/11/03 09:54:29;;;;;;;9.80;2.83;;;13.10;99.90;;;;;;5116346;27;20036;-48
2022/11/03 09:57:05;;;;;;;10.40;3.35;;;13.20;99.90;;;;;;5122091;27;20053;-52
2022/11/03 09:59:30;;;;;;;15.80;3.60;;;13.30;99.90;;;;;;5121297;27;20043;-52
2022/11/03 10:01:56;;;;;;;10.65;3.17;;;13.50;99.90;;;;;;5119413;27;20035;-51
2022/11/03 10:04:31;;;;;;;14.10;3.72;;;13.70;99.90;;;;;;5118298;27;20046;-49
2022/11/03 10:06:57;;;;;;;12.10;3.03;;;13.90;99.90;;;;;;5104739;27;20050;-49
2022/11/03 10:09:25;;;;;;;9.98;2.67;;;14.00;99.90;;;;;;5120532;27;20075;-52
2022/11/03 10:11:54;;;;;;;9.32;2.83;;;14.10;99.90;;;;;;5120894;27;20488;-49
2022/11/03 10:14:21;;;;;;;12.50;3.05;;;14.20;99.90;;;;;;5119946;27;20038;-48
2022/11/03 10:16:55;;;;;;;10.00;2.63;;;14.20;99.90;;;;;;5120334;27;20020;-51
2022/11/03 10:19:23;;;;;;;10.77;2.72;;;14.20;99.90;;;;;;5120513;27;20436;-48
2022/11/03 10:21:50;;;;;;;10.40;2.72;;;14.10;99.90;;;;;;5122015;27;20036;-48
2022/11/03 10:24:16;;;;;;;11.82;2.83;;;14.10;99.90;;;;;;5121555;27;20035;-50
2022/11/03 10:26:50;;;;;;;10.63;2.80;;;14.10;99.90;;;;;;5122012;27;20037;-48
2022/11/03 10:29:25;;;;;;;;;;;14.10;99.90;;;;;;5122596;27;20456;-49
2022/11/03 10:31:53;;;;;;;9.07;2.70;;;14.10;99.90;;;;;;5103866;27;19977;-53
2022/11/03 10:34:36;;;;;;;9.15;2.80;;;14.10;99.90;;;;;;5122296;27;20047;-50
2022/11/03 10:37:22;;;;;;;10.13;2.85;;;14.10;99.90;;;;;;5123917;27;20046;-52
2022/11/03 10:39:52;;;;;;;9.90;2.80;;;14.20;99.90;;;;;;5123250;27;20034;-52
2022/11/03 10:42:23;;;;;;;12.52;2.60;;;14.20;99.90;;;;;;5125623;27;20455;-50
2022/11/03 10:44:54;;;;;;;10.48;2.85;;;14.30;99.90;;;;;;5124495;27;20035;-53
2022/11/03 10:47:35;;;;;;;9.50;2.92;;;14.40;99.90;;;;;;5121738;27;20054;-51
2022/11/03 10:50:21;;;;;;;8.63;2.47;;;14.40;99.90;;;;;;5123012;27;20374;-50
2022/11/03 10:52:48;;;;;;;10.05;2.75;;;14.50;99.90;;;;;;5120888;27;20470;-53
2022/11/03 10:55:14;;;;;;;10.82;2.90;;;14.60;99.90;;;;;;5122781;27;20096;-50
2022/11/03 10:57:40;;;;;;;9.15;2.90;;;14.70;99.90;;;;;;5122073;27;20032;-53
2022/11/03 11:00:08;;;;;;;10.95;3.00;;;14.70;99.90;;;;;;5121660;27;20043;-48
2022/11/03 11:02:35;;;;;;;8.57;2.85;;;14.80;99.90;;;;;;5121583;27;20489;-51
2022/11/03 11:05:11;;;;;;;8.27;2.50;;;14.80;99.90;;;;;;5121209;27;20046;-50
2022/11/03 11:07:41;;;;;;;9.52;2.42;;;14.80;99.90;;;;;;5123322;27;20050;-50
2022/11/03 11:10:22;;;;;;;11.95;2.60;;;14.80;99.90;;;;;;5121868;27;20031;-52
2022/11/03 11:13:20;;;;;;;6.97;2.60;;;14.80;99.90;;;;;;5121468;27;20031;-51
2022/11/03 11:15:51;;;;;;;11.13;3.35;;;14.70;99.90;;;;;;5070466;27;20039;-53
2022/11/03 11:18:29;;;;;;;10.80;2.58;;;14.70;99.90;;;;;;5103854;27;20031;-49
2022/11/03 11:20:59;;;;;;;9.60;2.30;;;14.70;99.90;;;;;;5118857;27;20110;-49
2022/11/03 11:23:27;;;;;;;10.88;4.00;;;14.70;99.90;;;;;;5120561;27;20027;-51
2022/11/03 11:26:08;;;;;;;13.23;3.35;;;14.70;99.90;;;;;;5118096;27;20043;-48
2022/11/03 11:28:38;;;;;;;10.15;2.42;;;14.70;99.90;;;;;;5118838;27;20036;-49
2022/11/03 11:31:28;;;;;;;8.77;2.67;;;14.70;99.90;;;;;;5120229;27;20631;-52
2022/11/03 11:34:09;;;;;;;10.15;2.55;;;14.60;99.90;;;;;;5118990;27;20768;-49
2022/11/03 11:36:36;;;;;;;11.82;2.45;;;14.60;99.90;;;;;;5119906;27;20046;-51
2022/11/03 11:39:08;;;;;;;8.88;2.30;;;14.60;99.90;;;;;;5119754;27;20446;-52
2022/11/03 11:42:16;;;;;;;9.90;2.38;;;14.50;99.90;;;;;;5101293;27;20039;-49
2022/11/03 11:44:41;;;;;;;7.85;2.30;;;14.50;99.90;;;;;;5116711;27;20043;-50
2022/11/03 11:47:22;;;;;;;8.68;2.30;;;14.50;99.90;;;;;;5102552;27;20115;-50
2022/11/03 11:49:59;;;;;;;7.13;2.35;;;14.50;99.90;;;;;;5098945;27;20047;-49
2022/11/03 11:52:26;;;;;;;9.35;2.20;;;14.50;99.90;;;;;;5120033;27;20055;-50
2022/11/03 11:54:52;;;;;;;7.88;2.72;;;14.40;99.90;;;;;;5118656;27;20359;-46
2022/11/03 11:57:20;;;;;;;8.13;2.75;;;14.40;99.90;;;;;;5121261;27;20047;-48
2022/11/03 11:59:48;;;;;;;9.93;2.55;;;14.40;99.90;;;;;;5120548;27;20557;-53
2022/11/03 12:02:21;;;;;;;8.13;2.33;;;14.50;99.90;;;;;;5115252;27;20053;-49
2022/11/03 12:04:47;;;;;;;7.50;2.40;;;14.40;99.90;;;;;;5121402;27;20394;-51
2022/11/03 12:07:13;;;;;;;6.75;2.05;;;14.50;99.90;;;;;;5084724;27;20046;-51
2022/11/03 12:09:40;;;;;;;7.72;2.00;;;14.50;99.90;;;;;;5118872;27;20031;-49
2022/11/03 12:12:06;;;;;;;12.50;2.72;;;14.50;99.90;;;;;;5117757;27;20041;-51
2022/11/03 12:14:39;;;;;;;9.15;2.55;;;14.50;99.90;;;;;;5121275;27;20043;-50
2022/11/03 12:17:16;;;;;;;9.05;2.45;;;14.60;99.90;;;;;;5118905;27;20388;-52
2022/11/03 12:19:49;;;;;;;10.43;2.28;;;14.70;99.90;;;;;;5126049;27;20043;-48
2022/11/03 12:22:27;;;;;;;7.47;2.50;;;14.80;99.90;;;;;;5123856;27;20039;-49
2022/11/03 12:24:56;;;;;;;8.50;2.55;;;14.90;99.90;;;;;;5123615;27;20504;-50
2022/11/03 12:27:25;;;;;;;7.57;2.40;;;15.00;99.90;;;;;;5122708;27;20035;-48
2022/11/03 12:29:56;;;;;;;7.85;2.40;;;15.10;99.90;;;;;;5123027;27;20054;-50
2022/11/03 12:32:22;;;;;;;10.35;2.70;;;15.30;99.90;;;;;;5121983;27;20126;-49
2022/11/03 12:34:48;;;;;;;7.35;2.40;;;15.30;99.90;;;;;;5121228;27;20043;-50
2022/11/03 12:37:14;;;;;;;8.40;2.33;;;15.40;99.90;;;;;;5124606;27;20164;-51
2022/11/03 12:39:40;;;;;;;7.20;2.03;;;15.40;99.90;;;;;;5123483;27;20121;-48
2022/11/03 12:42:06;;;;;;;6.95;2.00;;;15.40;99.90;;;;;;5125340;27;20042;-48
2022/11/03 12:44:32;;;;;;;6.80;2.30;;;15.40;99.90;;;;;;5106126;27;20061;-49
2022/11/03 12:46:58;;;;;;;8.27;2.35;;;15.50;99.90;;;;;;5120429;27;20068;-50
2022/11/03 12:49:24;;;;;;;8.30;2.50;;;15.40;99.90;;;;;;5122403;27;20039;-49
2022/11/03 12:51:50;;;;;;;8.55;2.60;;;15.40;99.90;;;;;;5129362;27;20027;-50
2022/11/03 12:54:16;;;;;;;8.10;2.35;;;15.30;99.90;;;;;;5137118;27;20027;-50
2022/11/03 12:56:41;;;;;;;10.68;2.72;;;15.20;99.90;;;;;;5135521;27;20038;-49
2022/11/03 12:59:07;;;;;;;8.70;2.60;;;15.20;99.90;;;;;;5141031;27;20043;-48
2022/11/03 13:01:33;;;;;;;9.30;2.20;;;15.10;99.90;;;;;;5123171;27;20122;-49
2022/11/03 13:03:59;;;;;;;7.55;2.30;;;15.10;99.90;;;;;;5130691;27;20121;-50
2022/11/03 13:06:25;;;;;;;6.82;2.25;;;15.10;99.90;;;;;;5149061;27;20043;-48
2022/11/03 13:08:51;;;;;;;7.82;2.35;;;15.10;99.90;;;;;;5143106;27;20530;-49